Terminal Aerodrome Forecast
Issued by NWS Bismarck, ND

Home | Current Version | Previous Version | Graphics & Text | Print | Product List | Glossary On
Versions: 1 2 3 4 5 6 7 8 9 10 11 12 13 14 15 16 17 18
000
FTUS43 KBIS 212339
TAFBIS
TAF
KBIS 212339Z 2200/2224 16005KT P6SM SCT250
     FM221600 22007KT P6SM FEW060 SCT200
     FM222100 24010KT P6SM BKN060 BKN110
     FM222200 27010KT P6SM BKN080=

USA.gov is the U.S. government's official web portal to all federal, state and local government web resources and services.